Time;durP1;ratioP1;P1;durP2;ratioP2;P2;SDS_P1;SDS_P2;PMS_P1;PMS_P2;Temp;Humidity;BMP_temperature;BMP_pressure;BME280_temperature;BME280_humidity;BME280_pressure;Samples;Min_cycle;Max_cycle;Signal;HPM_P1;HPM_P2
2021/09/05 00:00:17;;;;;;;22.02;15.18;;;14.10;99.90;;;;;;6181393;23;20160;-86
2021/09/05 00:02:44;;;;;;;20.90;16.98;;;14.00;99.90;;;;;;6181900;23;20176;-86
2021/09/05 00:05:12;;;;;;;21.20;15.40;;;14.10;99.90;;;;;;6181654;23;20216;-87
2021/09/05 00:07:39;;;;;;;31.10;17.45;;;13.90;99.90;;;;;;6181356;23;20198;-89
2021/09/05 00:10:08;;;;;;;31.00;18.70;;;14.00;99.90;;;;;;6181542;23;20182;-91
2021/09/05 00:12:37;;;;;;;25.95;16.83;;;14.00;99.90;;;;;;6181581;23;20164;-90
2021/09/05 00:15:06;;;;;;;26.45;16.08;;;14.10;99.90;;;;;;6180928;23;20165;-88
2021/09/05 00:17:48;;;;;;;26.95;17.35;;;14.10;99.90;;;;;;6180640;23;20278;-91
2021/09/05 00:20:16;;;;;;;25.95;17.60;;;14.00;99.90;;;;;;6177366;23;20213;-88
2021/09/05 00:22:46;;;;;;;25.02;16.23;;;14.00;99.90;;;;;;6181158;23;20240;-88
2021/09/05 00:25:13;;;;;;;24.48;17.90;;;14.00;99.90;;;;;;6179396;23;20189;-86
2021/09/05 00:27:42;;;;;;;27.77;18.85;;;13.90;99.90;;;;;;6175348;23;20196;-87
2021/09/05 00:30:10;;;;;;;22.75;16.98;;;14.00;99.90;;;;;;6169456;23;20255;-86
2021/09/05 00:32:37;;;;;;;31.45;19.20;;;14.00;99.90;;;;;;6165581;23;20255;-86
2021/09/05 00:35:05;;;;;;;31.70;20.10;;;14.00;99.90;;;;;;6164637;23;20181;-87
2021/09/05 00:37:33;;;;;;;26.90;17.13;;;13.80;99.90;;;;;;6161155;23;20218;-86
2021/09/05 00:40:00;;;;;;;25.65;18.88;;;13.80;99.90;;;;;;6161662;23;20192;-86
2021/09/05 00:42:29;;;;;;;28.35;18.48;;;13.80;99.90;;;;;;6163913;23;20520;-86
2021/09/05 00:44:57;;;;;;;27.98;17.27;;;13.80;99.90;;;;;;6163315;23;20207;-85
2021/09/05 00:47:25;;;;;;;29.13;17.67;;;13.80;99.90;;;;;;6161728;23;20211;-85
2021/09/05 00:49:52;;;;;;;29.05;21.25;;;13.80;99.90;;;;;;6162133;23;20177;-85
2021/09/05 00:52:19;;;;;;;28.92;17.98;;;13.70;99.90;;;;;;6166187;23;20203;-88
2021/09/05 00:54:47;;;;;;;29.15;19.67;;;13.70;99.90;;;;;;6165198;23;20180;-88
2021/09/05 00:57:16;;;;;;;21.83;17.75;;;13.70;99.90;;;;;;6162531;23;20207;-85
2021/09/05 00:59:48;;;;;;;27.67;19.00;;;13.70;99.90;;;;;;6162932;23;20186;-86
2021/09/05 01:02:17;;;;;;;27.40;20.42;;;13.70;99.90;;;;;;6171581;23;20180;-85
2021/09/05 01:04:45;;;;;;;26.30;18.10;;;13.70;99.90;;;;;;6161581;23;20519;-86
2021/09/05 01:07:12;;;;;;;27.83;19.63;;;13.70;99.90;;;;;;6160763;23;20224;-86
2021/09/05 01:09:40;;;;;;;24.85;16.85;;;13.70;99.90;;;;;;6160506;23;20238;-85
2021/09/05 01:12:08;;;;;;;25.33;19.27;;;13.70;99.90;;;;;;6160586;23;20210;-85
2021/09/05 01:14:35;;;;;;;33.92;20.35;;;13.70;99.90;;;;;;6161563;23;20234;-85
2021/09/05 01:17:02;;;;;;;29.63;19.42;;;13.60;99.90;;;;;;6161626;23;20223;-85
2021/09/05 01:19:34;;;;;;;26.83;17.67;;;13.60;99.90;;;;;;6163594;23;20561;-88
2021/09/05 01:22:02;;;;;;;29.92;21.63;;;13.60;99.90;;;;;;6163879;23;20196;-85
2021/09/05 01:24:31;;;;;;;24.80;19.38;;;13.50;99.90;;;;;;6186572;23;20206;-85
2021/09/05 01:26:59;;;;;;;33.72;19.35;;;13.50;99.90;;;;;;6164822;23;20293;-86
2021/09/05 01:29:27;;;;;;;31.50;21.60;;;13.50;99.90;;;;;;6162330;23;20704;-86
2021/09/05 01:31:56;;;;;;;30.20;19.60;;;13.50;99.90;;;;;;6163941;23;20260;-91
2021/09/05 01:34:25;;;;;;;28.45;18.35;;;13.50;99.90;;;;;;6181295;23;20217;-91
2021/09/05 01:36:54;;;;;;;26.15;19.38;;;13.50;99.90;;;;;;6181552;23;20263;-91
2021/09/05 01:39:23;;;;;;;30.45;21.08;;;13.50;99.90;;;;;;6182332;23;20162;-91
2021/09/05 01:41:51;;;;;;;33.45;21.20;;;13.40;99.90;;;;;;6174051;23;20249;-85
2021/09/05 01:44:21;;;;;;;28.27;19.27;;;13.40;99.90;;;;;;6166129;23;20177;-85
2021/09/05 01:46:48;;;;;;;27.90;19.60;;;13.30;99.90;;;;;;6165204;23;20500;-86
2021/09/05 01:49:15;;;;;;;40.17;19.25;;;13.30;99.90;;;;;;6165680;23;20206;-86
2021/09/05 01:51:45;;;;;;;28.27;19.92;;;13.30;99.90;;;;;;6164998;23;20278;-86
2021/09/05 01:54:12;;;;;;;32.70;22.23;;;13.30;99.90;;;;;;6165821;23;20184;-86
2021/09/05 01:56:39;;;;;;;31.17;19.63;;;13.30;99.90;;;;;;6164843;23;20187;-85
2021/09/05 01:59:07;;;;;;;31.95;22.60;;;13.30;99.90;;;;;;6165022;23;20251;-86
2021/09/05 02:01:36;;;;;;;31.92;19.80;;;13.30;99.90;;;;;;6165382;23;20175;-87
2021/09/05 02:04:05;;;;;;;25.92;18.10;;;13.20;99.90;;;;;;6176518;23;20196;-85
2021/09/05 02:06:32;;;;;;;31.90;19.75;;;13.20;99.90;;;;;;6164334;23;20190;-85
2021/09/05 02:08:59;;;;;;;39.50;20.83;;;13.20;99.90;;;;;;6164597;23;20203;-85
2021/09/05 02:11:27;;;;;;;23.45;18.65;;;13.20;99.90;;;;;;6164609;23;20250;-86
2021/09/05 02:13:55;;;;;;;29.05;19.55;;;13.20;99.90;;;;;;6166629;23;20181;-85
2021/09/05 02:16:22;;;;;;;28.67;18.98;;;13.20;99.90;;;;;;6167096;23;20176;-86
2021/09/05 02:18:51;;;;;;;31.08;22.42;;;13.20;99.90;;;;;;6165747;23;20206;-86
2021/09/05 02:21:18;;;;;;;30.20;20.50;;;13.20;99.90;;;;;;6163641;23;20580;-86
2021/09/05 02:23:45;;;;;;;30.55;21.85;;;13.20;99.90;;;;;;6164932;23;20190;-86
2021/09/05 02:26:12;;;;;;;32.05;18.30;;;13.20;99.90;;;;;;6164433;23;20251;-86
2021/09/05 02:28:39;;;;;;;27.02;18.67;;;13.20;99.90;;;;;;6164942;23;20274;-85
2021/09/05 02:31:06;;;;;;;25.77;17.42;;;13.20;99.90;;;;;;6164513;23;20252;-85
2021/09/05 02:33:33;;;;;;;28.17;19.40;;;13.20;99.90;;;;;;6163808;23;20187;-85
2021/09/05 02:36:02;;;;;;;31.42;19.23;;;13.20;99.90;;;;;;6163602;23;20179;-85
2021/09/05 02:38:36;;;;;;;25.13;18.42;;;13.10;99.90;;;;;;6163111;23;20200;-86
2021/09/05 02:41:11;;;;;;;32.38;19.45;;;13.10;99.90;;;;;;6162171;23;20189;-85
2021/09/05 02:43:38;;;;;;;31.27;20.02;;;13.10;99.90;;;;;;6162720;23;20167;-86
2021/09/05 02:46:05;;;;;;;29.75;20.17;;;13.10;99.90;;;;;;6161589;23;20179;-86
2021/09/05 02:48:33;;;;;;;24.42;17.10;;;13.10;99.90;;;;;;6162987;23;20194;-86
2021/09/05 02:51:00;;;;;;;37.13;18.10;;;13.10;99.90;;;;;;6161964;23;20177;-86
2021/09/05 02:53:31;;;;;;;26.23;18.25;;;13.10;99.90;;;;;;6163023;23;20184;-85
2021/09/05 02:55:58;;;;;;;27.52;18.33;;;13.10;99.90;;;;;;6163493;23;20171;-85
2021/09/05 02:58:25;;;;;;;32.58;17.38;;;13.10;99.90;;;;;;6162003;23;20204;-86
2021/09/05 03:00:52;;;;;;;21.83;16.15;;;13.10;99.90;;;;;;6162669;23;20186;-86
2021/09/05 03:03:19;;;;;;;36.33;20.80;;;13.10;99.90;;;;;;6162275;23;20250;-86
2021/09/05 03:05:46;;;;;;;24.45;18.60;;;13.10;99.90;;;;;;6162902;23;20178;-86
2021/09/05 03:08:15;;;;;;;25.80;18.05;;;13.00;99.90;;;;;;6163571;23;20549;-85
2021/09/05 03:10:45;;;;;;;24.85;18.70;;;13.10;99.90;;;;;;6164067;23;20171;-86
2021/09/05 03:13:12;;;;;;;26.77;17.85;;;13.00;99.90;;;;;;6163502;23;20528;-87
2021/09/05 03:15:39;;;;;;;25.58;18.17;;;13.00;99.90;;;;;;6164600;23;20182;-85
2021/09/05 03:18:06;;;;;;;26.27;18.20;;;13.00;99.90;;;;;;6168741;23;20756;-87
2021/09/05 03:20:33;;;;;;;26.08;18.40;;;13.10;99.90;;;;;;6163359;23;20259;-86
2021/09/05 03:23:00;;;;;;;33.47;19.65;;;13.10;99.90;;;;;;6163689;23;20176;-86
2021/09/05 03:25:27;;;;;;;24.92;15.75;;;13.10;99.90;;;;;;6164268;23;20175;-85
2021/09/05 03:27:56;;;;;;;36.53;18.63;;;13.10;99.90;;;;;;6163459;23;20200;-87
2021/09/05 03:30:24;;;;;;;28.23;17.45;;;13.10;99.90;;;;;;6163812;23;20175;-87
2021/09/05 03:32:51;;;;;;;25.70;18.00;;;13.30;99.90;;;;;;6164304;23;20183;-86
2021/09/05 03:35:18;;;;;;;24.88;17.10;;;13.30;99.90;;;;;;6169692;23;20179;-86
2021/09/05 03:37:45;;;;;;;28.67;16.60;;;13.30;99.90;;;;;;6172274;23;20214;-87
2021/09/05 03:40:14;;;;;;;27.77;19.23;;;13.40;99.90;;;;;;6172786;23;20198;-88
2021/09/05 03:42:41;;;;;;;28.00;19.33;;;13.40;99.90;;;;;;6173271;23;20187;-85
2021/09/05 03:45:11;;;;;;;26.50;19.08;;;13.40;99.90;;;;;;6165598;23;20230;-86
2021/09/05 03:47:38;;;;;;;26.48;18.27;;;13.50;99.90;;;;;;6167252;23;20205;-86
2021/09/05 03:50:06;;;;;;;27.38;18.85;;;13.40;99.90;;;;;;6165119;23;20187;-86
2021/09/05 03:52:33;;;;;;;31.65;20.80;;;13.50;99.90;;;;;;6163257;23;20182;-86
2021/09/05 03:55:01;;;;;;;33.22;19.98;;;13.40;99.90;;;;;;6163562;23;20180;-85
2021/09/05 03:57:28;;;;;;;36.78;21.27;;;13.40;99.90;;;;;;6162378;23;20206;-85
2021/09/05 03:59:55;;;;;;;29.67;18.58;;;13.40;99.90;;;;;;6162746;23;20247;-88
2021/09/05 04:02:23;;;;;;;39.05;19.40;;;13.40;99.90;;;;;;6162886;23;20190;-86
2021/09/05 04:04:50;;;;;;;36.30;21.02;;;13.40;99.90;;;;;;6162048;23;20163;-86
2021/09/05 04:07:20;;;;;;;31.90;20.05;;;13.40;99.90;;;;;;6161281;23;20230;-86
2021/09/05 04:12:32;;;;;;;25.33;18.83;;;13.40;99.90;;;;;;6179180;23;20185;-86
2021/09/05 04:14:59;;;;;;;32.67;20.35;;;13.50;99.90;;;;;;6174888;23;20180;-85
2021/09/05 04:17:28;;;;;;;38.03;21.58;;;13.50;99.90;;;;;;6165371;23;20203;-86
2021/09/05 04:19:55;;;;;;;38.70;22.67;;;13.50;99.90;;;;;;6164194;23;20199;-86
2021/09/05 04:22:22;;;;;;;33.25;21.13;;;13.50;99.90;;;;;;6162279;23;20192;-87
2021/09/05 04:24:50;;;;;;;35.00;21.90;;;13.50;99.90;;;;;;6162203;23;20180;-85
2021/09/05 04:27:17;;;;;;;34.72;19.85;;;13.50;99.90;;;;;;6161142;23;20192;-86
2021/09/05 04:29:44;;;;;;;29.35;20.02;;;13.50;99.90;;;;;;6161682;23;20183;-86
2021/09/05 04:32:12;;;;;;;34.20;23.05;;;13.50;99.90;;;;;;6162296;23;20178;-86
2021/09/05 04:34:41;;;;;;;38.67;23.15;;;13.50;99.90;;;;;;6161327;23;20187;-85
2021/09/05 04:37:08;;;;;;;41.63;21.73;;;13.50;99.90;;;;;;6161362;23;20196;-87
2021/09/05 04:39:35;;;;;;;33.60;20.55;;;13.50;99.90;;;;;;6161614;23;20202;-86
2021/09/05 04:42:02;;;;;;;35.40;20.67;;;13.50;99.90;;;;;;6162537;23;20203;-86
2021/09/05 04:44:29;;;;;;;28.40;18.88;;;13.60;99.90;;;;;;6161011;23;20235;-86
2021/09/05 04:46:56;;;;;;;36.53;21.40;;;13.60;99.90;;;;;;6161959;23;20244;-86
2021/09/05 04:49:23;;;;;;;29.02;21.10;;;13.70;99.90;;;;;;6161499;23;20187;-86
2021/09/05 04:51:52;;;;;;;36.55;21.73;;;13.60;99.90;;;;;;6161999;23;20172;-87
2021/09/05 04:54:19;;;;;;;37.50;20.77;;;13.70;99.90;;;;;;6160859;23;20264;-86
2021/09/05 04:56:46;;;;;;;28.80;20.98;;;13.70;99.90;;;;;;6166896;23;20179;-86
2021/09/05 04:59:13;;;;;;;30.05;19.70;;;13.70;99.90;;;;;;6158541;23;20530;-86
2021/09/05 05:01:40;;;;;;;35.78;21.48;;;13.70;99.90;;;;;;6158852;23;20191;-85
2021/09/05 05:04:07;;;;;;;32.80;19.88;;;13.70;99.90;;;;;;6159483;23;20181;-86
2021/09/05 05:06:34;;;;;;;29.67;18.42;;;13.80;99.90;;;;;;6160112;23;20736;-85
2021/09/05 05:09:03;;;;;;;24.30;17.63;;;13.80;99.90;;;;;;6158592;23;20177;-85
2021/09/05 05:11:30;;;;;;;30.95;20.40;;;13.80;99.90;;;;;;6159161;23;20184;-85
2021/09/05 05:13:57;;;;;;;34.67;20.15;;;13.80;99.90;;;;;;6160402;23;20180;-85
2021/09/05 05:16:24;;;;;;;30.42;19.50;;;13.90;99.90;;;;;;6160603;23;20176;-85
2021/09/05 05:18:51;;;;;;;28.13;18.23;;;13.80;99.90;;;;;;6160181;23;20211;-86
2021/09/05 05:21:19;;;;;;;27.15;16.85;;;13.80;99.90;;;;;;6163094;23;20179;-84
2021/09/05 05:23:46;;;;;;;23.92;17.63;;;13.80;99.90;;;;;;6163162;23;20191;-85
2021/09/05 05:26:14;;;;;;;23.85;16.98;;;13.80;99.90;;;;;;6162044;23;20176;-86
2021/09/05 05:28:41;;;;;;;28.73;18.20;;;13.80;99.90;;;;;;6161740;23;20192;-86
2021/09/05 05:31:08;;;;;;;27.77;17.80;;;13.80;99.90;;;;;;6162492;23;20187;-85
2021/09/05 05:33:35;;;;;;;39.65;20.40;;;13.90;99.90;;;;;;6167016;23;20169;-88
2021/09/05 05:36:03;;;;;;;27.42;18.45;;;14.00;99.90;;;;;;6169915;23;20168;-86
2021/09/05 05:38:30;;;;;;;26.67;17.42;;;14.00;99.90;;;;;;6163125;23;20196;-86
2021/09/05 05:40:57;;;;;;;27.45;16.88;;;14.00;99.90;;;;;;6162941;23;20237;-87
2021/09/05 05:43:26;;;;;;;31.20;18.48;;;14.10;99.90;;;;;;6163054;23;20220;-86
2021/09/05 05:45:56;;;;;;;25.27;16.27;;;14.10;99.90;;;;;;6163157;23;20180;-86
2021/09/05 05:48:23;;;;;;;22.48;16.75;;;14.10;99.90;;;;;;6162418;23;20573;-86
2021/09/05 05:50:52;;;;;;;24.52;15.43;;;14.10;99.90;;;;;;6162799;23;20518;-86
2021/09/05 05:53:19;;;;;;;21.10;16.70;;;14.10;99.90;;;;;;6166258;23;20200;-88
2021/09/05 05:55:48;;;;;;;25.63;17.60;;;14.10;99.90;;;;;;6166537;23;20161;-86
2021/09/05 05:58:15;;;;;;;27.00;16.42;;;14.20;99.90;;;;;;6164662;23;20219;-86
2021/09/05 06:00:44;;;;;;;24.02;16.17;;;14.20;99.90;;;;;;6164411;23;20192;-87
2021/09/05 06:03:11;;;;;;;22.00;15.52;;;14.20;99.90;;;;;;6163201;23;20190;-86
2021/09/05 06:05:39;;;;;;;31.02;15.00;;;14.20;99.90;;;;;;6162195;23;20191;-86
2021/09/05 06:08:06;;;;;;;29.27;16.42;;;14.20;99.90;;;;;;6163906;23;20200;-86
2021/09/05 06:10:34;;;;;;;23.05;16.23;;;14.30;99.90;;;;;;6167582;23;20188;-86
2021/09/05 06:13:01;;;;;;;23.60;16.58;;;14.30;99.90;;;;;;6167758;23;20176;-86
2021/09/05 06:15:28;;;;;;;19.60;14.52;;;14.20;99.90;;;;;;6160943;23;20177;-85
2021/09/05 06:17:56;;;;;;;20.23;14.15;;;14.20;99.90;;;;;;6161712;23;20200;-86
2021/09/05 06:20:23;;;;;;;27.70;15.25;;;14.30;99.90;;;;;;6160781;23;20203;-86
2021/09/05 06:22:50;;;;;;;31.33;14.52;;;14.10;99.90;;;;;;6161632;23;20180;-86
2021/09/05 06:25:17;;;;;;;18.13;14.45;;;14.10;99.90;;;;;;6161543;23;20177;-86
2021/09/05 06:27:45;;;;;;;22.67;14.15;;;14.00;99.90;;;;;;6180717;23;20188;-90
2021/09/05 06:30:13;;;;;;;22.88;15.25;;;14.00;99.90;;;;;;6183699;23;20161;-88
2021/09/05 06:32:40;;;;;;;24.67;16.88;;;14.00;99.90;;;;;;6184191;23;20297;-87
2021/09/05 06:35:10;;;;;;;19.95;12.57;;;14.00;99.90;;;;;;6181621;23;20203;-85
2021/09/05 06:37:37;;;;;;;19.33;15.30;;;14.00;99.90;;;;;;6163392;23;20216;-85
2021/09/05 06:40:05;;;;;;;17.30;12.90;;;14.00;99.90;;;;;;6161387;23;20188;-85
2021/09/05 06:42:33;;;;;;;26.45;15.95;;;14.00;99.90;;;;;;6162573;23;20185;-86
2021/09/05 06:45:00;;;;;;;18.73;14.02;;;14.10;99.90;;;;;;6162067;23;20232;-86
2021/09/05 06:47:27;;;;;;;19.05;13.48;;;14.10;99.90;;;;;;6160750;23;20711;-88
2021/09/05 06:49:54;;;;;;;18.77;14.18;;;14.10;99.90;;;;;;6160898;23;20169;-86
2021/09/05 06:52:24;;;;;;;22.02;14.85;;;14.20;99.90;;;;;;6162261;23;20181;-86
2021/09/05 06:54:52;;;;;;;20.77;14.88;;;14.20;99.90;;;;;;6164238;23;20202;-86
2021/09/05 06:57:19;;;;;;;17.85;14.35;;;14.30;99.90;;;;;;6170118;23;20205;-86
2021/09/05 06:59:56;;;;;;;19.55;14.63;;;14.40;99.90;;;;;;6172707;23;20203;-86
2021/09/05 07:02:28;;;;;;;25.67;15.13;;;14.40;99.90;;;;;;6173671;23;20168;-86
2021/09/05 07:04:56;;;;;;;18.77;13.95;;;14.50;99.90;;;;;;6174659;23;20177;-86
2021/09/05 07:07:24;;;;;;;17.83;13.55;;;14.50;99.90;;;;;;6173229;23;20203;-86
2021/09/05 07:09:51;;;;;;;17.90;13.10;;;14.60;99.90;;;;;;6176634;23;20185;-86
2021/09/05 07:12:18;;;;;;;22.40;14.63;;;14.60;99.90;;;;;;6176461;23;20255;-86
2021/09/05 07:14:53;;;;;;;16.95;13.75;;;14.60;99.90;;;;;;6175062;23;20502;-85
2021/09/05 07:17:24;;;;;;;18.95;13.90;;;14.70;99.90;;;;;;6170359;23;20256;-85
2021/09/05 07:23:44;;;;;;;21.13;15.05;;;14.90;99.90;;;;;;6162903;23;20181;-86
2021/09/05 07:26:13;;;;;;;19.10;13.93;;;14.80;99.90;;;;;;6165454;23;20208;-87
2021/09/05 07:28:48;;;;;;;18.98;15.63;;;14.80;99.90;;;;;;6165310;23;20180;-88
2021/09/05 07:34:23;;;;;;;18.65;14.60;;;15.00;99.90;;;;;;6130062;23;20181;-86
2021/09/05 07:36:52;;;;;;;17.30;13.02;;;15.10;99.90;;;;;;6133283;23;20257;-87
2021/09/05 07:39:19;;;;;;;19.02;15.43;;;15.10;99.90;;;;;;6155078;23;20221;-87
2021/09/05 07:41:58;;;;;;;25.40;15.55;;;15.30;99.90;;;;;;6167039;23;20184;-86
2021/09/05 07:44:27;;;;;;;18.77;15.18;;;15.20;99.90;;;;;;6168599;23;20200;-84
2021/09/05 07:46:55;;;;;;;19.08;14.68;;;15.20;99.90;;;;;;6170010;23;20212;-86
2021/09/05 07:49:32;;;;;;;20.55;16.00;;;15.20;99.90;;;;;;6167270;23;20667;-85
2021/09/05 07:51:59;;;;;;;23.15;14.40;;;15.30;99.90;;;;;;6167151;23;20153;-85
2021/09/05 07:54:26;;;;;;;19.08;12.70;;;15.30;99.90;;;;;;6165343;23;20180;-85
2021/09/05 07:56:55;;;;;;;19.02;15.02;;;15.40;99.90;;;;;;6165494;23;20204;-85
2021/09/05 08:02:09;;;;;;;19.35;15.13;;;15.70;99.90;;;;;;6157161;23;20242;-85
2021/09/05 08:04:36;;;;;;;17.83;12.88;;;15.50;99.90;;;;;;6167119;23;20262;-86
2021/09/05 08:07:04;;;;;;;24.63;17.85;;;15.50;99.90;;;;;;6174171;23;20309;-87
2021/09/05 08:09:33;;;;;;;22.92;16.38;;;15.50;99.90;;;;;;6177980;23;20165;-83
2021/09/05 08:12:01;;;;;;;20.33;15.63;;;15.60;99.90;;;;;;6174967;23;20189;-84
2021/09/05 08:14:29;;;;;;;19.27;15.45;;;15.60;99.90;;;;;;6169263;23;20184;-85
2021/09/05 08:16:56;;;;;;;18.52;15.65;;;15.60;99.90;;;;;;6164588;23;20207;-86
2021/09/05 08:19:23;;;;;;;20.20;14.77;;;15.80;99.90;;;;;;6165428;23;20197;-86
2021/09/05 08:21:50;;;;;;;16.42;13.45;;;15.80;99.90;;;;;;6165063;23;20178;-87
2021/09/05 08:24:22;;;;;;;21.60;15.20;;;15.90;99.90;;;;;;6163596;23;20208;-88
2021/09/05 08:26:50;;;;;;;18.50;15.07;;;16.00;99.90;;;;;;6165259;23;20209;-88
2021/09/05 08:29:18;;;;;;;19.67;13.43;;;16.10;99.90;;;;;;6164026;23;20200;-87
2021/09/05 08:31:45;;;;;;;16.77;13.68;;;16.10;99.90;;;;;;6161937;23;20181;-87
2021/09/05 08:34:15;;;;;;;22.15;16.85;;;16.20;99.90;;;;;;6164400;23;20507;-86
2021/09/05 08:36:42;;;;;;;16.83;13.70;;;16.20;99.90;;;;;;6164114;23;20189;-86
2021/09/05 08:39:09;;;;;;;17.10;14.75;;;16.20;99.90;;;;;;6162485;23;20662;-87
2021/09/05 08:41:38;;;;;;;20.35;16.25;;;16.20;99.90;;;;;;6162579;23;20192;-86
2021/09/05 08:44:05;;;;;;;19.90;15.25;;;16.20;99.90;;;;;;6162352;23;20181;-86
2021/09/05 08:46:40;;;;;;;19.98;14.95;;;16.20;99.90;;;;;;6164078;23;20179;-85
2021/09/05 08:49:08;;;;;;;18.20;14.18;;;16.30;99.90;;;;;;6165337;23;20182;-85
2021/09/05 08:51:35;;;;;;;19.55;13.48;;;16.40;99.90;;;;;;6170603;23;20177;-85
2021/09/05 08:54:03;;;;;;;17.55;14.63;;;16.50;99.90;;;;;;6160946;23;20177;-86
2021/09/05 08:56:30;;;;;;;16.25;12.80;;;16.60;99.90;;;;;;6159701;23;20233;-86
2021/09/05 08:58:57;;;;;;;17.27;14.48;;;16.60;99.90;;;;;;6160150;23;20305;-85
2021/09/05 09:01:29;;;;;;;17.17;14.10;;;16.70;99.90;;;;;;6163771;23;20191;-84
2021/09/05 09:04:09;;;;;;;16.75;13.77;;;16.80;99.90;;;;;;6160797;23;20169;-86
2021/09/05 09:06:41;;;;;;;15.60;13.52;;;16.90;99.90;;;;;;6161564;23;20191;-85
2021/09/05 09:09:10;;;;;;;18.63;14.63;;;16.90;99.90;;;;;;6161629;23;20178;-84
2021/09/05 09:11:54;;;;;;;18.60;15.00;;;16.90;99.90;;;;;;6161539;23;20172;-86
2021/09/05 09:14:25;;;;;;;16.93;13.37;;;17.00;99.90;;;;;;6159502;23;20177;-87
2021/09/05 09:16:53;;;;;;;16.75;13.48;;;17.20;99.90;;;;;;6160687;23;20449;-85
2021/09/05 09:19:29;;;;;;;17.00;12.83;;;17.50;99.90;;;;;;6163713;23;20184;-86
2021/09/05 09:21:57;;;;;;;20.53;13.07;;;17.80;99.90;;;;;;6167933;23;20399;-87
2021/09/05 09:24:24;;;;;;;16.70;12.57;;;18.20;99.90;;;;;;6169145;23;20420;-87
2021/09/05 09:26:59;;;;;;;21.00;12.60;;;18.30;99.90;;;;;;6163738;23;20400;-88
2021/09/05 09:29:27;;;;;;;18.20;13.00;;;18.80;99.90;;;;;;6169303;23;20412;-88
2021/09/05 09:31:58;;;;;;;17.47;13.27;;;19.50;99.90;;;;;;6174010;23;20436;-86
2021/09/05 09:34:27;;;;;;;16.80;12.30;;;19.90;99.90;;;;;;6176233;23;20474;-88
2021/09/05 09:36:59;;;;;;;17.73;14.40;;;20.20;99.90;;;;;;6175203;23;20461;-86
2021/09/05 09:39:28;;;;;;;15.73;12.40;;;20.60;99.90;;;;;;6175511;23;20417;-86
2021/09/05 09:41:56;;;;;;;16.60;12.73;;;20.90;99.90;;;;;;6175042;23;20413;-86
2021/09/05 09:44:32;;;;;;;14.23;12.00;;;21.10;99.90;;;;;;6168316;23;20412;-87
2021/09/05 09:47:10;;;;;;;14.80;10.80;;;21.50;99.90;;;;;;6162539;23;20428;-86
2021/09/05 09:49:52;;;;;;;22.60;12.07;;;21.50;99.90;;;;;;6175475;23;20412;-87
2021/09/05 09:52:19;;;;;;;12.73;11.10;;;21.90;99.90;;;;;;6176907;23;20635;-86
2021/09/05 09:54:54;;;;;;;14.20;10.33;;;22.80;99.90;;;;;;6174799;23;20389;-86
2021/09/05 09:57:36;;;;;;;18.63;11.17;;;23.00;99.90;;;;;;6176516;23;20705;-87
2021/09/05 10:00:05;;;;;;;16.93;13.20;;;23.40;98.60;;;;;;6171797;23;20488;-83
2021/09/05 10:02:38;;;;;;;13.60;9.63;;;23.80;98.00;;;;;;6171057;23;20409;-85
2021/09/05 10:05:08;;;;;;;17.90;11.27;;;24.00;97.00;;;;;;6166593;23;20399;-85
2021/09/05 10:10:29;;;;;;;13.37;10.80;;;23.60;96.40;;;;;;6165021;23;20396;-85
2021/09/05 10:13:10;;;;;;;12.73;9.77;;;23.80;96.60;;;;;;6165915;23;20394;-84
2021/09/05 10:29:32;;;;;;;16.27;11.90;;;24.60;95.30;;;;;;6130121;23;20397;-86
2021/09/05 10:32:00;;;;;;;10.90;9.80;;;24.20;95.10;;;;;;6165272;23;20404;-84
2021/09/05 10:34:32;;;;;;;13.57;10.80;;;24.20;95.90;;;;;;6166151;23;20970;-85
2021/09/05 10:37:11;;;;;;;13.20;10.70;;;24.10;95.50;;;;;;6166331;23;20448;-85
2021/09/05 10:40:07;;;;;;;13.73;12.00;;;23.70;96.60;;;;;;6166740;23;20400;-84
2021/09/05 10:42:53;;;;;;;10.27;7.87;;;23.20;96.90;;;;;;6167291;23;20404;-83
2021/09/05 10:45:22;;;;;;;10.50;9.10;;;23.30;96.60;;;;;;6166375;23;20400;-84
2021/09/05 10:47:49;;;;;;;11.40;8.30;;;23.20;97.80;;;;;;6176305;23;20424;-83
2021/09/05 10:50:33;;;;;;;12.40;9.43;;;23.30;96.70;;;;;;6181835;23;20443;-83
2021/09/05 10:53:19;;;;;;;10.57;8.40;;;23.10;96.90;;;;;;6181795;23;20436;-82
2021/09/05 10:56:10;;;;;;;10.10;7.50;;;23.20;96.20;;;;;;6181235;23;20428;-82
2021/09/05 10:58:39;;;;;;;8.70;6.40;;;23.30;97.40;;;;;;6181154;23;20432;-83
2021/09/05 11:01:23;;;;;;;7.77;6.50;;;23.30;95.70;;;;;;6182341;23;20491;-84
2021/09/05 11:04:19;;;;;;;7.43;6.60;;;23.20;95.20;;;;;;6181268;23;20392;-86
2021/09/05 11:07:08;;;;;;;7.53;6.50;;;23.30;95.30;;;;;;6181606;23;20507;-86
2021/09/05 11:09:49;;;;;;;7.63;6.20;;;23.30;94.60;;;;;;6176951;23;20724;-86
2021/09/05 11:12:44;;;;;;;7.70;6.37;;;23.00;95.40;;;;;;6169201;23;20472;-86
2021/09/05 11:15:17;;;;;;;8.63;5.80;;;23.10;95.50;;;;;;6169251;23;20415;-85
2021/09/05 11:17:54;;;;;;;7.40;6.40;;;23.20;94.90;;;;;;6167592;23;20436;-86
2021/09/05 11:20:29;;;;;;;6.60;5.47;;;23.00;94.60;;;;;;6164318;23;20447;-85
2021/09/05 11:27:06;;;;;;;7.43;5.90;;;23.00;93.70;;;;;;6156681;23;20429;-85
2021/09/05 11:29:34;;;;;;;8.07;6.17;;;22.70;94.00;;;;;;6182368;23;20403;-85
2021/09/05 11:32:14;;;;;;;9.13;6.40;;;22.80;94.50;;;;;;6168321;23;20412;-87
2021/09/05 11:34:56;;;;;;;8.27;6.07;;;22.50;94.50;;;;;;6167254;23;20424;-84
2021/09/05 11:37:49;;;;;;;8.37;6.47;;;22.50;94.60;;;;;;6167408;23;20428;-84
2021/09/05 11:40:19;;;;;;;8.50;5.77;;;22.30;95.10;;;;;;6178243;23;20538;-86
2021/09/05 11:43:05;;;;;;;8.07;5.70;;;22.20;95.40;;;;;;6181593;23;20402;-85
2021/09/05 11:45:38;;;;;;;7.63;5.43;;;22.30;95.60;;;;;;6181323;23;20415;-86
2021/09/05 11:48:06;;;;;;;6.70;5.90;;;22.30;96.00;;;;;;6182332;23;20416;-86
2021/09/05 11:50:36;;;;;;;7.57;5.33;;;22.50;95.80;;;;;;6181106;23;20423;-87
2021/09/05 11:53:05;;;;;;;7.33;5.40;;;22.70;96.00;;;;;;6182123;23;20475;-86
2021/09/05 11:55:32;;;;;;;6.67;5.63;;;22.80;95.50;;;;;;6179370;23;20389;-86
2021/09/05 11:58:00;;;;;;;10.00;5.70;;;23.00;95.10;;;;;;6165391;23;20432;-86
2021/09/05 12:00:30;;;;;;;6.40;5.70;;;23.20;95.10;;;;;;6164983;23;20801;-85
2021/09/05 12:02:58;;;;;;;7.47;5.33;;;23.20;94.50;;;;;;6166422;23;20397;-85
2021/09/05 12:05:25;;;;;;;8.90;4.37;;;23.20;93.90;;;;;;6171973;23;20447;-85
2021/09/05 12:07:55;;;;;;;5.63;4.70;;;23.10;92.00;;;;;;6166839;23;20484;-84
2021/09/05 12:10:23;;;;;;;4.77;4.27;;;23.00;91.50;;;;;;6167797;23;20416;-84
2021/09/05 12:13:05;;;;;;;5.07;4.57;;;23.00;91.30;;;;;;6168351;23;20403;-84
2021/09/05 12:15:38;;;;;;;7.10;5.70;;;23.00;92.00;;;;;;6166713;23;20411;-83
2021/09/05 12:18:18;;;;;;;7.10;5.20;;;23.00;93.30;;;;;;6166219;23;20511;-84
2021/09/05 12:20:47;;;;;;;7.10;5.57;;;23.00;92.30;;;;;;6163257;23;20432;-85
2021/09/05 12:23:25;;;;;;;6.60;4.70;;;23.10;92.10;;;;;;6163847;23;20455;-84
2021/09/05 12:25:54;;;;;;;6.20;5.10;;;23.10;92.30;;;;;;6163942;23;20867;-84
2021/09/05 12:28:24;;;;;;;6.00;5.17;;;23.20;92.50;;;;;;6167715;23;20506;-84
2021/09/05 12:30:54;;;;;;;6.67;4.70;;;23.30;92.40;;;;;;6166572;23;20415;-84
2021/09/05 12:33:31;;;;;;;5.00;4.50;;;23.20;92.20;;;;;;6168226;23;20391;-85
2021/09/05 12:36:10;;;;;;;5.93;5.33;;;23.20;92.50;;;;;;6164513;23;20463;-85
2021/09/05 12:38:39;;;;;;;4.10;3.23;;;23.20;93.20;;;;;;6164318;23;20439;-86
2021/09/05 12:41:07;;;;;;;5.50;4.07;;;23.30;91.80;;;;;;6165953;23;20444;-86
2021/09/05 12:43:43;;;;;;;4.90;3.33;;;23.30;91.00;;;;;;6168316;23;20406;-85
2021/09/05 12:46:10;;;;;;;5.70;3.90;;;23.30;88.90;;;;;;6160831;23;20769;-86
2021/09/05 12:48:39;;;;;;;5.30;3.70;;;23.20;90.00;;;;;;6165918;23;20452;-85
2021/09/05 12:51:08;;;;;;;7.50;5.90;;;23.30;89.40;;;;;;6168796;23;20503;-85
2021/09/05 12:53:36;;;;;;;4.70;3.43;;;23.30;91.20;;;;;;6169184;23;20412;-85
2021/09/05 12:56:05;;;;;;;3.60;3.00;;;23.20;90.40;;;;;;6169467;23;20424;-85
2021/09/05 12:58:32;;;;;;;4.13;3.50;;;23.00;89.00;;;;;;6168205;23;20502;-85
2021/09/05 13:00:59;;;;;;;3.93;3.53;;;23.00;89.10;;;;;;6161416;23;20454;-85
2021/09/05 13:03:26;;;;;;;5.90;3.90;;;22.90;90.10;;;;;;6163416;23;20399;-85
2021/09/05 13:05:53;;;;;;;4.80;3.73;;;22.90;88.70;;;;;;6163228;23;20504;-85
2021/09/05 13:08:20;;;;;;;5.23;3.30;;;22.80;88.60;;;;;;6165768;23;20441;-85
2021/09/05 13:10:48;;;;;;;3.80;3.33;;;22.90;89.60;;;;;;6162195;23;20417;-85
2021/09/05 13:13:16;;;;;;;4.90;3.43;;;22.90;89.80;;;;;;6160692;23;20408;-85
2021/09/05 13:15:44;;;;;;;3.70;3.07;;;22.80;87.80;;;;;;6161375;23;20491;-85